This is the latest recevied weather packets stored in our database for station/object K3JAR-3. If no packets are shown the sender has not sent any weather packets the latest 10 day(s).
| Time | Temp. | Humidity | Pressure | Rain* | Wind** | Luminosity | Snow |
|---|---|---|---|---|---|---|---|
| 1777482633 | 16.67° C | 81% | 1017.7 hPa | 0 mm | - | - | - |
| 1777481422 | 16.11° C | 81% | 1017.3 hPa | 0 mm | - | - | - |
| 1777477832 | 16.11° C | 80% | 1017.8 hPa | 0 mm | - | - | - |
| 1777477272 | 16.11° C | 80% | 1017.5 hPa | 0 mm | - | - | - |
| 1777474822 | 16.11° C | 80% | 1017.3 hPa | 0 mm | - | - | - |
| 1777468218 | 16.67° C | 78% | 1016.6 hPa | 0 mm | - | - | - |
| 1777467024 | 16.67° C | 77% | 1016.6 hPa | 0 mm | - | - | - |
| 1777465218 | 17.22° C | 76% | 1016.2 hPa | 0 mm | - | - | - |
| 1777456818 | 19.44° C | 87% | 1014.6 hPa | 0 mm | - | - | - |
| 1777455626 | 19.44° C | 88% | 1014.7 hPa | 0 mm | - | - | - |
| 1777452031 | 20° C | 87% | 1014.4 hPa | 0 mm | - | - | - |
| 1777451436 | 20° C | 87% | 1014.5 hPa | 0 mm | - | - | - |
| 1777449032 | 20.56° C | 88% | 1014.3 hPa | 0 mm | - | - | - |
| 1777448418 | 20.56° C | 88% | 1014.1 hPa | 0 mm | - | - | - |
| 1777441838 | 22.22° C | 93% | 1014.4 hPa | 0 mm | - | - | - |
| 1777440017 | 22.22° C | 96% | 1014.4 hPa | 0 mm | - | - | - |
| 1777439415 | 21.67° C | 94% | 1014.2 hPa | 0 mm | - | - | - |
| 1777435820 | 22.22° C | 89% | 1014 hPa | 0 mm | - | - | - |
| 1777433418 | 22.78° C | 83% | 1013.6 hPa | 0 mm | - | - | - |
| 1777426228 | 25.56° C | 94% | 1010.7 hPa | 0 mm | - | - | - |
| 1777425626 | 25.56° C | 95% | 1010.5 hPa | 0 mm | - | - | - |
| 1777415425 | 26.67° C | 87% | 1011.2 hPa | 0 mm | - | - | - |
| 1777414215 | 26.67° C | 86% | 1011.2 hPa | 0 mm | - | - | - |
| 1777411217 | 27.78° C | 84% | 1011.4 hPa | 0 mm | - | - | - |
| 1777409433 | 28.33° C | 81% | 1011.2 hPa | 0 mm | - | - | - |
* Rain latest hour (hover to see other rain measurements)
** Current wind speed in m/s (hover to see current wind gust speed)